Swansea, Australia

10:49 PM AEDT on February 24, 2017 (GMT +1100)
The Grange Hills Swansea | | Change Station

Elev 79 ft 42.04 °S, 148.08 °E | Updated 21 seconds ago

Clear
Clear
58.6 °F
Feels Like 58.6 °F
N
4.0
Wind Variable Wind from NW
Gusts 4.0 mph

Today
High -- | Low -- °F
--% Chance of Precip.
Yesterday
High -- | Low -- °F
Precip. -- in
Pressure 30.24 in
Visibility -9999.0 miles
Clouds
Dew Point 46 °F
Humidity 62%
Rainfall 0.14 in
Snow Depth Not available.
6:41 AM 7:59 PM
Waning Crescent, 5% visible
METAR YMHB 241130Z 18006KT CAVOK 13/05 Q1024
Pressure 30.24 in
Visibility -9999.0 miles
Clouds
Dew Point 46 °F
Humidity 62%
Rainfall 0.14 in
Snow Depth Not available.
6:41 AM 7:59 PM
Waning Crescent, 5% visible
METAR YMHB 241130Z 18006KT CAVOK 13/05 Q1024

Get Your Daily Forecast Email!

Thanks for signing up!

Be on the lookout for a verification email in your inbox.

You'll start receiving the daily forecast at 8 AM.

×

10-Day Weather Forecast

×

Almanac

Astronomy

Feb. 24, 2017 Rise Set
Actual Time
Civil Twilight
Nautical Twilight
Astronomical Twilight
Moon
Length of Visible Light
Length of Day
Tomorrow will be .
, % of the Moon is Illuminated

Today's Extremes

Country Highs Country Lows

Community

WunderPhotos

Upload Photos

1,962,540 photos uploaded!

WunderBlog® & News

Nearby

Air Quality

  Air Quality AQ Index Pollutant
Not available.

Snow Depth

Station Depth Elevation

Earthquake Activity

City Distance Mag. Time & Date
Minimum magnitude displayed is 2.5.

Coastal Water Temperatures

Place Temperature

Stations

Nearby Weather Stations

Station Location Temp. Windchill Dew Point Humidity Wind Precip. Elev Updated Type